Latest Weather Observations for Latrobe Valley

IDV60801

Issued at 11:31 pm EST Tuesday 24 May 2016 (issued every 30 minutes, with the page automatically refreshed every 10 minutes)

About weather observations | Map of weather stations | Latest weather observations for VIC | Other Formats
Station Details ID: 085280 Name: LATROBE VALLEY AIRPORT Lat: -38.21 Lon: 146.47 Height: 55.7 m
Data from the previous 72 hours. | See also: Recent months at Latrobe Valley
Date/Time
EST
Temp
°C
App
Temp
°C
Dew
Point
Rel
Hum
%
Delta-T
°C
Wind Press
QNH
hPa
Press
MSL
hPa
Rain
since 9 am
mm
Dir
 
Spd
km/h
Gust
km/h
Spd
kts
Gust
kts
24/11:30pm 8.1 4.7 5.9 86 1.0 W 13 17 7 9 1017.8 1017.8 0.2
24/11:00pm 8.0 4.2 5.8 86 1.0 W 15 17 8 9 1018.2 1018.2 0.2
24/10:30pm 8.8 5.0 5.9 82 1.3 W 15 17 8 9 1018.8 1018.8 0.2
24/10:00pm 9.3 5.5 6.0 80 1.5 W 15 17 8 9 1018.9 1018.9 0.2
24/09:30pm 10.1 6.9 7.0 81 1.5 W 13 17 7 9 1019.3 1019.3 0.2
24/09:00pm 10.8 7.5 7.9 82 1.4 WNW 15 22 8 12 1019.4 1019.4 0.2
24/08:30pm 11.2 7.2 8.2 82 1.5 WNW 19 26 10 14 1019.4 1019.4 0.2
24/08:00pm 11.5 7.3 8.4 81 1.5 W 20 28 11 15 1019.1 1019.1 0.2
24/07:30pm 11.3 7.6 8.0 80 1.6 W 17 24 9 13 1019.0 1019.0 0.2
24/07:00pm 11.6 6.9 7.7 77 1.9 W 22 28 12 15 1018.6 1018.6 0.2
24/06:30pm 11.3 7.2 7.8 79 1.7 W 19 26 10 14 1018.6 1018.6 0.2
24/06:00pm 11.8 7.3 6.9 72 2.3 W 20 24 11 13 1018.3 1018.3 0.2
24/05:30pm 12.4 7.1 6.9 69 2.6 WSW 24 33 13 18 1018.4 1018.4 0.2
24/05:00pm 12.7 8.4 7.8 72 2.4 W 20 30 11 16 1018.4 1018.4 0.2
24/04:30pm 13.1 7.2 7.5 69 2.7 WSW 28 43 15 23 1018.2 1018.2 0.2
24/04:00pm 13.1 8.2 8.4 73 2.3 W 24 32 13 17 1017.9 1017.9 0.2
24/03:30pm 13.9 8.5 8.1 68 2.9 W 26 33 14 18 1017.6 1017.6 0.2
24/03:00pm 14.3 8.5 8.0 66 3.1 W 28 37 15 20 1017.6 1017.6 0.2
24/02:30pm 14.1 8.8 8.5 69 2.8 W 26 33 14 18 1017.4 1017.4 0.2
24/02:00pm 14.5 9.1 8.2 66 3.2 W 26 37 14 20 1017.4 1017.4 0.2
24/01:30pm 13.7 7.7 7.2 65 3.2 W 28 41 15 22 1017.7 1017.7 0.2
24/01:00pm 14.7 10.1 9.7 72 2.6 W 24 35 13 19 1017.7 1017.7 0.2
24/12:30pm 14.0 8.6 9.6 75 2.3 W 28 37 15 20 1018.1 1018.1 0.2
24/12:00pm 14.8 10.0 9.0 68 3.0 W 24 35 13 19 1018.2 1018.2 0.2
24/11:30am 14.3 9.4 9.9 75 2.3 W 26 33 14 18 1018.5 1018.5 0.2
24/11:00am 13.5 7.1 8.6 72 2.5 WSW 32 43 17 23 1018.7 1018.7 0.2
24/10:30am 12.7 7.4 9.7 82 1.5 W 28 39 15 21 1019.1 1019.1 0.2
24/10:00am 11.9 6.6 9.8 87 1.1 W 28 37 15 20 1018.8 1018.8 0.2
24/09:30am 11.3 6.8 10.0 92 0.7 W 24 30 13 16 1018.9 1018.9 0.2
24/09:21am 11.3 7.3 10.4 94 0.5 W 22 30 12 16 1018.9 1018.9 0.2
24/09:18am 10.7 6.5 9.8 94 0.5 W 22 30 12 16 1018.8 1018.8 0.2
24/09:00am 10.6 6.0 9.7 94 0.5 W 24 32 13 17 1019.0 1019.0 5.4
24/08:30am 10.5 5.9 9.6 94 0.5 W 24 35 13 19 1018.7 1018.7 3.8
24/08:21am 10.4 4.9 9.3 93 0.5 WSW 28 37 15 20 1018.6 1018.6 3.6
24/08:00am 10.5 4.6 9.1 91 0.7 W 30 39 16 21 1018.1 1018.1 3.2
24/07:30am 10.5 4.2 9.1 91 0.7 W 32 41 17 22 1017.7 1017.7 3.0
24/07:16am 10.4 3.9 8.8 90 0.8 W 33 46 18 25 1017.6 1017.6 3.0
24/07:00am 10.6 3.7 8.7 88 0.9 W 35 44 19 24 1017.3 1017.3 3.0
24/06:30am 10.3 4.7 8.6 89 0.8 W 28 39 15 21 1017.0 1017.0 3.0
24/06:17am 10.2 4.2 8.6 90 0.8 W 30 39 16 21 1017.0 1017.0 3.0
24/06:00am 10.4 4.1 8.8 90 0.8 W 32 41 17 22 1017.1 1017.1 3.0
24/05:57am 10.5 4.2 8.8 89 0.8 W 32 41 17 22 1017.2 1017.2 2.8
24/05:30am 10.8 4.2 8.4 85 1.2 W 33 44 18 24 1016.8 1016.8 2.8
24/05:00am 10.4 5.0 8.2 86 1.1 W 26 39 14 21 1016.7 1016.7 2.8
24/04:30am 10.2 5.3 8.3 88 0.9 W 24 32 13 17 1016.7 1016.7 2.8
24/04:00am 10.2 4.4 8.0 86 1.1 W 28 37 15 20 1016.5 1016.5 2.8
24/03:30am 10.3 4.5 8.1 86 1.1 W 28 37 15 20 1016.7 1016.7 2.8
24/03:00am 10.2 5.3 8.3 88 0.9 W 24 33 13 18 1017.0 1017.0 2.8
24/02:30am 10.3 5.0 8.6 89 0.8 W 26 37 14 20 1017.1 1017.1 2.8
24/02:01am 10.1 5.3 8.9 92 0.6 W 24 32 13 17 1017.1 1017.1 2.8
24/02:00am 10.2 5.4 9.0 92 0.6 W 24 32 13 17 1017.1 1017.1 2.8
24/01:32am 9.9 2.4 8.0 88 0.9 W 37 52 20 28 1017.2 1017.2 1.8
24/01:30am 9.9 2.0 7.7 86 1.1 W 39 52 21 28 1017.3 1017.3 1.6
24/01:27am 10.1 2.8 7.3 83 1.3 WNW 35 52 19 28 1017.3 1017.3 1.0
24/01:22am 10.6 4.9 8.2 85 1.2 WNW 28 48 15 26 1017.1 1017.1 0.8
24/01:00am 10.4 5.5 8.5 88 0.9 W 24 35 13 19 1017.1 1017.1 0.6
24/12:30am 10.2 4.8 8.1 87 1.0 W 26 35 14 19 1017.5 1017.5 0.6
24/12:00am 10.3 5.4 8.4 88 0.9 WNW 24 30 13 16 1017.6 1017.6 0.6
 
Date/Time
EST
Temp
°C
App
Temp
°C
Dew
Point
Rel
Hum
%
Delta-T
°C
Wind Press
QNH
hPa
Press
MSL
hPa
Rain
since 9 am
mm
Dir
 
Spd
km/h
Gust
km/h
Spd
kts
Gust
kts
23/11:30pm 10.4 5.8 8.2 86 1.1 WNW 22 30 12 16 1017.7 1017.7 0.6
23/11:00pm 10.0 6.0 8.1 88 0.9 W 19 24 10 13 1017.7 1017.7 0.6
23/10:30pm 10.6 6.1 8.5 87 1.0 W 22 32 12 17 1018.0 1018.0 0.6
23/10:00pm 10.3 6.2 8.6 89 0.8 W 20 30 11 16 1018.0 1018.0 0.6
23/09:30pm 9.9 6.3 8.3 90 0.8 W 17 24 9 13 1018.0 1018.0 0.6
23/09:00pm 10.4 6.3 8.5 88 0.9 W 20 30 11 16 1018.0 1018.0 0.6
23/08:30pm 10.3 5.8 8.4 88 0.9 W 22 30 12 16 1017.8 1017.8 0.6
23/08:00pm 10.2 5.3 8.3 88 0.9 W 24 32 13 17 1017.7 1017.7 0.6
23/07:30pm 10.1 5.1 8.2 88 0.9 W 24 32 13 17 1017.7 1017.7 0.6
23/07:00pm 10.1 4.7 7.9 86 1.1 W 26 37 14 20 1017.5 1017.5 0.6
23/06:30pm 10.1 5.3 7.5 84 1.2 W 22 30 12 16 1017.3 1017.3 0.6
23/06:00pm 10.2 4.5 6.9 80 1.6 WNW 26 39 14 21 1016.9 1016.9 0.6
23/05:30pm 10.5 3.6 7.2 80 1.6 WNW 33 41 18 22 1016.5 1016.5 0.6
23/05:00pm 10.7 5.0 6.6 76 1.9 W 26 33 14 18 1016.4 1016.4 0.6
23/04:38pm 10.5 4.4 6.6 77 1.8 WSW 28 35 15 19 1016.3 1016.3 0.4
23/04:30pm 10.2 3.5 7.3 82 1.4 WSW 32 44 17 24 1016.2 1016.2 0.4
23/04:17pm 10.7 2.2 7.0 78 1.8 W 41 59 22 32 1016.3 1016.3 0.4
23/04:04pm 12.7 4.7 5.8 63 3.2 W 37 56 20 30 1015.8 1015.8 0.0
23/04:00pm 13.1 5.0 5.3 59 3.6 W 37 48 20 26 1015.7 1015.7 0.0
23/03:32pm 13.7 4.5 5.3 57 3.9 W 43 61 23 33 1015.3 1015.3 0.0
23/03:30pm 13.7 4.4 5.1 56 4.0 W 43 59 23 32 1015.2 1015.2 0.0
23/03:00pm 14.0 5.7 5.9 58 3.9 W 39 59 21 32 1015.2 1015.2 0.0
23/02:30pm 14.8 6.8 5.9 55 4.3 W 37 65 20 35 1014.9 1014.9 0.0
23/02:06pm 13.8 5.2 4.7 54 4.2 WNW 39 65 21 35 1015.0 1015.0 0.0
23/02:00pm 13.6 5.9 5.3 57 3.9 WNW 35 48 19 26 1015.0 1015.0 0.0
23/01:30pm 12.7 4.4 6.3 65 3.0 W 39 63 21 34 1015.5 1015.5 0.0
23/01:04pm 14.1 5.3 5.7 57 4.0 W 41 59 22 32 1015.4 1015.4 0.0
23/01:00pm 14.1 4.9 5.5 56 4.1 W 43 57 23 31 1015.2 1015.2 0.0
23/12:32pm 14.0 4.3 5.6 57 4.0 WNW 46 65 25 35 1015.1 1015.1 0.0
23/12:30pm 13.7 3.9 5.3 57 3.9 WNW 46 63 25 34 1015.1 1015.1 0.0
23/12:00pm 13.5 5.8 7.1 65 3.1 W 37 57 20 31 1015.3 1015.3 0.0
23/11:40am 13.0 4.8 6.6 65 3.1 WNW 39 61 21 33 1015.0 1015.0 0.0
23/11:30am 12.9 5.4 6.5 65 3.1 WNW 35 48 19 26 1015.1 1015.1 0.0
23/11:00am 12.9 4.4 7.1 68 2.8 W 41 54 22 29 1015.1 1015.1 0.0
23/10:30am 12.4 4.6 6.7 68 2.7 W 37 57 20 31 1015.0 1015.0 0.0
23/10:00am 12.6 4.1 6.9 68 2.7 W 41 63 22 34 1014.6 1014.6 0.0
23/09:30am 11.6 3.7 7.9 78 1.8 W 39 63 21 34 1013.9 1013.9 0.0
23/09:22am 10.9 1.3 8.1 83 1.4 WNW 48 69 26 37 1014.0 1014.0 0.0
23/09:17am 11.3 2.6 7.6 78 1.8 WNW 43 69 23 37 1013.7 1013.7 0.0
23/09:00am 12.8 5.2 7.5 70 2.6 WNW 37 56 20 30 1013.4 1013.4 3.8
23/08:32am 12.5 3.3 6.5 67 2.9 W 44 63 24 34 1013.1 1013.2 3.8
23/08:30am 12.5 3.4 6.8 68 2.7 WNW 44 56 24 30 1012.9 1013.0 3.8
23/08:12am 12.7 3.2 6.7 67 2.9 W 46 80 25 43 1012.9 1013.0 3.8
23/08:09am 12.6 3.6 6.6 67 2.9 W 43 61 23 33 1012.8 1012.9 3.8
23/08:00am 12.6 4.2 7.5 71 2.5 W 41 56 22 30 1012.7 1012.8 3.8
23/07:46am 12.6 7.0 8.9 78 1.9 WNW 28 48 15 26 1012.6 1012.7 3.8
23/07:30am 11.7 7.3 8.9 83 1.4 W 22 32 12 17 1012.1 1012.2 3.8
23/07:00am 11.5 5.8 8.5 82 1.5 WNW 28 39 15 21 1011.6 1011.7 3.8
23/06:53am 11.6 5.3 8.8 83 1.4 W 32 48 17 26 1011.6 1011.7 3.8
23/06:41am 12.1 4.9 9.1 82 1.5 W 37 50 20 27 1011.8 1011.9 3.8
23/06:35am 12.4 7.0 9.6 83 1.4 W 28 50 15 27 1011.8 1011.9 3.6
23/06:30am 12.6 8.4 9.8 83 1.4 W 22 28 12 15 1011.8 1011.9 3.2
23/06:00am 11.7 8.5 9.9 89 0.9 W 17 24 9 13 1011.2 1011.3 3.2
23/05:30am 11.9 7.5 10.5 91 0.7 W 24 32 13 17 1011.1 1011.2 3.2
23/05:00am 11.9 6.8 10.5 91 0.7 WNW 28 37 15 20 1011.3 1011.4 3.2
23/04:59am 11.9 6.8 10.5 91 0.7 WNW 28 43 15 23 1011.3 1011.4 3.2
23/04:39am 12.1 5.9 10.0 87 1.1 W 33 43 18 23 1011.2 1011.3 2.4
23/04:30am 12.3 6.6 9.9 85 1.2 W 30 43 16 23 1011.0 1011.1 1.8
23/04:00am 11.8 7.2 9.7 87 1.1 W 24 35 13 19 1010.5 1010.6 1.4
23/03:55am 11.8 6.0 9.5 86 1.2 W 30 43 16 23 1010.4 1010.5 1.4
23/03:33am 12.8 4.8 10.5 86 1.2 W 43 61 23 33 1010.9 1011.0 0.8
23/03:31am 13.1 5.0 10.6 85 1.3 W 44 61 24 33 1010.8 1010.9 0.6
23/03:30am 13.3 5.2 10.8 85 1.3 W 44 61 24 33 1010.8 1010.9 0.6
23/03:28am 13.5 5.6 10.7 83 1.5 W 43 61 23 33 1010.4 1010.5 0.6
23/03:21am 16.5 11.3 12.8 79 2.1 WNW 32 61 17 33 1009.5 1009.6 0.4
23/03:00am 19.4 14.4 10.9 58 4.6 WNW 28 41 15 22 1009.0 1009.1 0.0
23/02:30am 19.8 16.2 10.0 53 5.3 WNW 19 26 10 14 1008.7 1008.8 0.0
23/02:00am 20.4 17.1 9.6 50 5.8 NW 17 24 9 13 1008.8 1008.9 0.0
23/01:30am 21.5 17.2 9.4 46 6.5 NW 22 35 12 19 1009.1 1009.2 0.0
23/01:00am 19.7 18.2 9.0 50 5.6 N 7 13 4 7 1009.2 1009.3 0.0
23/12:30am 20.0 16.6 9.0 49 5.8 N 17 22 9 12 1009.6 1009.7 0.0
23/12:00am 19.9 17.1 8.6 48 5.9 NE 13 17 7 9 1009.9 1010.0 0.0
 
Date/Time
EST
Temp
°C
App
Temp
°C
Dew
Point
Rel
Hum
%
Delta-T
°C
Wind Press
QNH
hPa
Press
MSL
hPa
Rain
since 9 am
mm
Dir
 
Spd
km/h
Gust
km/h
Spd
kts
Gust
kts
22/11:30pm 17.7 14.9 8.6 55 4.7 NNW 13 22 7 12 1010.4 1010.5 0.0
22/11:00pm 18.1 16.2 9.2 56 4.7 NNE 9 17 5 9 1010.6 1010.7 0.0
22/10:30pm 16.3 14.2 8.3 59 4.1 ESE 9 13 5 7 1010.9 1011.0 0.0
22/10:00pm 16.7 13.7 7.9 56 4.5 ESE 13 19 7 10 1011.1 1011.2 0.0
22/09:30pm 15.3 14.1 8.1 62 3.6 E 4 9 2 5 1011.7 1011.8 0.0
22/09:00pm 15.2 12.7 8.4 64 3.4 ENE 11 15 6 8 1012.2 1012.3 0.0
22/08:30pm 14.0 12.1 9.2 73 2.5 ESE 9 13 5 7 1012.3 1012.4 0.0
22/08:00pm 13.6 12.9 10.2 80 1.8 NW 4 9 2 5 1012.9 1013.0 0.0
22/07:30pm 13.5 12.2 9.9 79 1.9 N 7 9 4 5 1013.0 1013.1 0.0
22/07:00pm 12.2 12.2 9.8 85 1.2 CALM 0 0 0 0 1013.5 1013.5 0.0
22/06:30pm 13.8 13.6 10.6 81 1.7 SE 2 7 1 4 1013.5 1013.5 0.0
22/06:00pm 15.0 13.5 10.6 75 2.3 E 9 11 5 6 1013.5 1013.5 0.0
22/05:30pm 14.6 13.7 11.2 80 1.8 SSW 7 13 4 7 1013.5 1013.5 0.0
22/05:00pm 15.0 14.7 11.4 79 1.9 NE 4 9 2 5 1013.7 1013.7 0.0
22/04:30pm 17.7 18.1 11.3 66 3.5 CALM 0 6 0 3 1013.6 1013.6 0.0
22/04:00pm 18.8 17.8 10.4 58 4.5 NW 6 11 3 6 1013.5 1013.5 0.0
22/03:30pm 20.0 18.3 9.9 52 5.4 ENE 9 13 5 7 1013.5 1013.5 0.0
22/03:00pm 21.9 19.7 10.7 49 6.2 N 13 19 7 10 1013.5 1013.5 0.0
22/02:30pm 22.1 20.5 10.3 47 6.5 ESE 9 11 5 6 1013.6 1013.6 0.0
22/02:00pm 20.8 19.5 10.0 50 5.8 ESE 7 11 4 6 1013.8 1013.8 0.0
22/01:30pm 19.7 18.6 12.0 61 4.3 W 9 17 5 9 1014.2 1014.2 0.0
22/01:00pm 17.2 16.3 11.5 69 3.1 WSW 7 13 4 7 1014.9 1014.9 0.0
22/12:30pm 16.8 16.2 11.7 72 2.8 ESE 6 11 3 6 1015.1 1015.1 0.0
22/12:00pm 13.9 14.0 10.3 79 1.9 CALM 0 7 0 4 1016.4 1016.4 0.0
22/11:30am 13.2 13.4 11.9 92 0.7 NW 2 6 1 3 1016.6 1016.6 0.0
22/11:00am 10.7 9.7 10.2 97 0.3 N 6 9 3 5 1017.0 1017.0 0.0
22/10:30am 9.3 9.1 9.0 98 0.1 CALM 0 6 0 3 1017.6 1017.6 0.0
22/10:25am 9.0 8.7 8.7 98 0.1 CALM 0 6 0 3 1017.6 1017.6 0.0
22/10:01am 8.3 7.1 8.0 98 0.1 WSW 4 9 2 5 1018.0 1018.0 0.0
22/10:00am 8.3 7.5 8.0 98 0.1 WSW 2 9 1 5 1018.0 1018.0 0.0
22/09:30am 7.6 6.2 7.3 98 0.1 NNW 4 9 2 5 1018.6 1018.6 0.0
22/09:00am 6.6 5.0 6.3 98 0.1 SSW 4 9 2 5 1019.1 1019.1 0.2
22/08:30am 5.8 4.4 5.4 97 0.2 SSW 2 6 1 3 1019.4 1019.4 0.2
22/08:00am 5.5 4.4 5.1 97 0.2 CALM 0 0 0 0 1019.3 1019.3 0.2
22/07:30am 5.0 3.8 4.6 97 0.2 CALM 0 0 0 0 1019.4 1019.4 0.2
22/07:00am 4.8 3.6 4.4 97 0.2 CALM 0 0 0 0 1019.2 1019.2 0.2
22/06:30am 5.0 3.8 4.6 97 0.2 CALM 0 0 0 0 1019.2 1019.2 0.0
22/06:00am 5.3 3.8 4.9 97 0.2 NNW 2 7 1 4 1019.4 1019.4 0.0
22/05:30am 5.7 4.3 5.3 97 0.2 SW 2 9 1 5 1019.5 1019.5 0.0
22/05:00am 5.7 3.5 5.3 97 0.2 WSW 6 9 3 5 1019.7 1019.7 0.0
22/04:30am 5.8 3.4 5.4 97 0.2 SSW 7 9 4 5 1019.6 1019.6 0.0
22/04:00am 5.5 3.3 5.1 97 0.2 WSW 6 9 3 5 1019.4 1019.4 0.0
22/03:30am 5.8 4.8 5.4 97 0.2 CALM 0 0 0 0 1019.6 1019.6 0.0
22/03:00am 5.4 3.1 4.8 96 0.3 SE 6 9 3 5 1020.0 1020.0 0.0
22/02:30am 4.7 2.6 4.1 96 0.3 N 4 7 2 4 1020.7 1020.7 0.0
22/02:00am 5.4 3.9 4.8 96 0.3 NNE 2 6 1 3 1020.5 1020.5 0.0
22/01:30am 6.3 4.0 5.7 96 0.3 NE 7 9 4 5 1020.4 1020.4 0.0
22/01:00am 6.7 4.5 6.0 95 0.3 NE 7 9 4 5 1020.4 1020.4 0.0
22/12:54am 7.1 5.1 6.4 95 0.3 NE 6 7 3 4 1020.4 1020.4 0.0
22/12:30am 7.6 5.7 6.9 95 0.3 NNE 6 7 3 4 1020.8 1020.8 0.0
22/12:00am 7.7 7.0 7.0 95 0.3 CALM 0 0 0 0 1021.1 1021.1 0.0
 
Date/Time
EST
Temp
°C
App
Temp
°C
Dew
Point
Rel
Hum
%
Delta-T
°C
Wind Press
QNH
hPa
Press
MSL
hPa
Rain
since 9 am
mm
Dir
 
Spd
km/h
Gust
km/h
Spd
kts
Gust
kts
21/11:35pm 7.0 6.1 5.9 93 0.5 CALM 0 0 0 0 1021.5 1021.5 0.0

Other Formats:

Comma delimited format used in spreadsheet applications
http://www.bom.gov.au/fwo/IDV60801/IDV60801.94891.axf

JavaScript Object Notation format (JSON) in row-major order
http://www.bom.gov.au/fwo/IDV60801/IDV60801.94891.json